sensor_id;sensor_type;location;lat;lon;timestamp;temperature;humidity
8684;DHT22;4379;59.744;18.206;2023-04-03T00:01:08;-4.90;99.90
8684;DHT22;4379;59.744;18.206;2023-04-03T00:03:36;-4.90;99.90
8684;DHT22;4379;59.744;18.206;2023-04-03T00:06:04;-5.00;99.90
8684;DHT22;4379;59.744;18.206;2023-04-03T00:08:37;-5.00;99.90
8684;DHT22;4379;59.744;18.206;2023-04-03T00:11:05;-5.00;99.90
8684;DHT22;4379;59.744;18.206;2023-04-03T00:13:33;-5.00;99.90
8684;DHT22;4379;59.744;18.206;2023-04-03T00:16:04;-5.10;99.90
8684;DHT22;4379;59.744;18.206;2023-04-03T00:18:32;-5.10;99.90
8684;DHT22;4379;59.744;18.206;2023-04-03T00:20:59;-5.10;99.90
8684;DHT22;4379;59.744;18.206;2023-04-03T00:23:27;-5.10;99.90
8684;DHT22;4379;59.744;18.206;2023-04-03T00:25:55;-5.10;99.90
8684;DHT22;4379;59.744;18.206;2023-04-03T00:28:22;-5.20;99.90
8684;DHT22;4379;59.744;18.206;2023-04-03T00:30:51;-5.10;99.90
8684;DHT22;4379;59.744;18.206;2023-04-03T00:33:19;-5.10;99.90
8684;DHT22;4379;59.744;18.206;2023-04-03T00:35:51;-5.10;99.90
8684;DHT22;4379;59.744;18.206;2023-04-03T00:38:19;-5.20;99.90
8684;DHT22;4379;59.744;18.206;2023-04-03T00:40:48;-5.20;99.90
8684;DHT22;4379;59.744;18.206;2023-04-03T00:43:24;-5.20;99.90
8684;DHT22;4379;59.744;18.206;2023-04-03T00:45:55;-5.20;99.90
8684;DHT22;4379;59.744;18.206;2023-04-03T00:48:31;-5.20;99.90
8684;DHT22;4379;59.744;18.206;2023-04-03T00:50:59;-5.10;99.90
8684;DHT22;4379;59.744;18.206;2023-04-03T00:53:38;-5.10;99.90
8684;DHT22;4379;59.744;18.206;2023-04-03T00:56:11;-5.10;99.90
8684;DHT22;4379;59.744;18.206;2023-04-03T00:59:04;-5.10;99.90
8684;DHT22;4379;59.744;18.206;2023-04-03T01:01:32;-5.10;99.90
8684;DHT22;4379;59.744;18.206;2023-04-03T01:04:04;-5.10;99.90
8684;DHT22;4379;59.744;18.206;2023-04-03T01:06:36;-5.10;99.90
8684;DHT22;4379;59.744;18.206;2023-04-03T01:09:06;-5.10;99.90
8684;DHT22;4379;59.744;18.206;2023-04-03T01:11:36;-5.10;99.90
8684;DHT22;4379;59.744;18.206;2023-04-03T01:14:06;-5.10;99.90
8684;DHT22;4379;59.744;18.206;2023-04-03T01:16:36;-5.10;99.90
8684;DHT22;4379;59.744;18.206;2023-04-03T01:19:10;-5.10;99.90
8684;DHT22;4379;59.744;18.206;2023-04-03T01:21:56;-5.00;99.90
8684;DHT22;4379;59.744;18.206;2023-04-03T01:24:37;-5.00;99.90
8684;DHT22;4379;59.744;18.206;2023-04-03T01:27:09;-5.10;99.90
8684;DHT22;4379;59.744;18.206;2023-04-03T01:29:37;-5.10;99.90
8684;DHT22;4379;59.744;18.206;2023-04-03T01:32:05;-5.10;99.90
8684;DHT22;4379;59.744;18.206;2023-04-03T01:34:33;-5.10;99.90
8684;DHT22;4379;59.744;18.206;2023-04-03T01:37:00;-5.10;99.90
8684;DHT22;4379;59.744;18.206;2023-04-03T01:39:28;-5.00;99.90
8684;DHT22;4379;59.744;18.206;2023-04-03T01:41:55;-5.10;99.90
8684;DHT22;4379;59.744;18.206;2023-04-03T01:44:23;-5.10;99.90
8684;DHT22;4379;59.744;18.206;2023-04-03T01:46:51;-5.10;99.90
8684;DHT22;4379;59.744;18.206;2023-04-03T01:49:18;-5.10;99.90
8684;DHT22;4379;59.744;18.206;2023-04-03T01:51:46;-5.10;99.90
8684;DHT22;4379;59.744;18.206;2023-04-03T01:54:14;-5.10;99.90
8684;DHT22;4379;59.744;18.206;2023-04-03T01:56:41;-5.00;99.90
8684;DHT22;4379;59.744;18.206;2023-04-03T01:59:09;-5.00;99.90
8684;DHT22;4379;59.744;18.206;2023-04-03T02:01:36;-5.00;99.90
8684;DHT22;4379;59.744;18.206;2023-04-03T02:04:04;-5.00;99.90
8684;DHT22;4379;59.744;18.206;2023-04-03T02:06:32;-5.00;99.90
8684;DHT22;4379;59.744;18.206;2023-04-03T02:09:00;-5.10;99.90
8684;DHT22;4379;59.744;18.206;2023-04-03T02:11:27;-5.10;99.90
8684;DHT22;4379;59.744;18.206;2023-04-03T02:13:55;-5.10;99.90
8684;DHT22;4379;59.744;18.206;2023-04-03T02:16:23;-5.10;99.90
8684;DHT22;4379;59.744;18.206;2023-04-03T02:18:50;-5.10;99.90
8684;DHT22;4379;59.744;18.206;2023-04-03T02:21:18;-5.20;99.90
8684;DHT22;4379;59.744;18.206;2023-04-03T02:23:45;-5.20;99.90
8684;DHT22;4379;59.744;18.206;2023-04-03T02:26:15;-5.20;99.90
8684;DHT22;4379;59.744;18.206;2023-04-03T02:28:43;-5.20;99.90
8684;DHT22;4379;59.744;18.206;2023-04-03T02:31:10;-5.20;99.90
8684;DHT22;4379;59.744;18.206;2023-04-03T02:33:38;-5.20;99.90
8684;DHT22;4379;59.744;18.206;2023-04-03T02:36:07;-5.20;99.90
8684;DHT22;4379;59.744;18.206;2023-04-03T02:38:35;-5.20;99.90
8684;DHT22;4379;59.744;18.206;2023-04-03T02:41:04;-5.20;99.90
8684;DHT22;4379;59.744;18.206;2023-04-03T02:43:33;-5.20;99.90
8684;DHT22;4379;59.744;18.206;2023-04-03T02:46:00;-5.20;99.90
8684;DHT22;4379;59.744;18.206;2023-04-03T02:48:28;-5.20;99.90
8684;DHT22;4379;59.744;18.206;2023-04-03T02:50:56;-5.20;99.90
8684;DHT22;4379;59.744;18.206;2023-04-03T02:53:23;-5.20;99.90
8684;DHT22;4379;59.744;18.206;2023-04-03T02:55:51;-5.10;99.90
8684;DHT22;4379;59.744;18.206;2023-04-03T02:58:19;-5.30;99.90
8684;DHT22;4379;59.744;18.206;2023-04-03T03:00:46;-5.30;99.90
8684;DHT22;4379;59.744;18.206;2023-04-03T03:03:14;-5.30;99.90
8684;DHT22;4379;59.744;18.206;2023-04-03T03:05:42;-5.30;99.90
8684;DHT22;4379;59.744;18.206;2023-04-03T03:08:09;-5.30;99.90
8684;DHT22;4379;59.744;18.206;2023-04-03T03:10:37;-5.30;99.90
8684;DHT22;4379;59.744;18.206;2023-04-03T03:13:05;-5.20;99.90
8684;DHT22;4379;59.744;18.206;2023-04-03T03:15:32;-5.40;99.90
8684;DHT22;4379;59.744;18.206;2023-04-03T03:18:00;-5.40;99.90
8684;DHT22;4379;59.744;18.206;2023-04-03T03:20:27;-5.50;99.90
8684;DHT22;4379;59.744;18.206;2023-04-03T03:22:55;-5.60;99.90
8684;DHT22;4379;59.744;18.206;2023-04-03T03:25:22;-5.60;99.90
8684;DHT22;4379;59.744;18.206;2023-04-03T03:27:50;-5.60;99.90
8684;DHT22;4379;59.744;18.206;2023-04-03T03:30:17;-5.80;99.90
8684;DHT22;4379;59.744;18.206;2023-04-03T03:32:45;-5.80;99.90
8684;DHT22;4379;59.744;18.206;2023-04-03T03:35:13;-5.80;99.90
8684;DHT22;4379;59.744;18.206;2023-04-03T03:37:40;-5.90;99.90
8684;DHT22;4379;59.744;18.206;2023-04-03T03:40:08;-5.80;99.90
8684;DHT22;4379;59.744;18.206;2023-04-03T03:42:36;-5.80;99.90
8684;DHT22;4379;59.744;18.206;2023-04-03T03:45:04;-5.90;99.90
8684;DHT22;4379;59.744;18.206;2023-04-03T03:47:34;-5.90;99.90
8684;DHT22;4379;59.744;18.206;2023-04-03T03:50:03;-5.90;99.90
8684;DHT22;4379;59.744;18.206;2023-04-03T03:52:31;-5.90;99.90
8684;DHT22;4379;59.744;18.206;2023-04-03T03:54:58;-5.90;99.90
8684;DHT22;4379;59.744;18.206;2023-04-03T03:57:26;-5.90;99.90
8684;DHT22;4379;59.744;18.206;2023-04-03T03:59:56;-5.90;99.90
8684;DHT22;4379;59.744;18.206;2023-04-03T04:02:23;-6.00;99.90
8684;DHT22;4379;59.744;18.206;2023-04-03T04:04:51;-6.00;99.90
8684;DHT22;4379;59.744;18.206;2023-04-03T04:07:19;-5.90;99.90
8684;DHT22;4379;59.744;18.206;2023-04-03T04:09:46;-5.90;99.90
8684;DHT22;4379;59.744;18.206;2023-04-03T04:12:14;-5.90;99.90
8684;DHT22;4379;59.744;18.206;2023-04-03T04:14:43;-5.90;99.90
8684;DHT22;4379;59.744;18.206;2023-04-03T04:17:13;-6.00;99.90
8684;DHT22;4379;59.744;18.206;2023-04-03T04:19:44;-5.90;99.90
8684;DHT22;4379;59.744;18.206;2023-04-03T04:22:12;-5.90;99.90
8684;DHT22;4379;59.744;18.206;2023-04-03T04:24:40;-5.80;99.90
8684;DHT22;4379;59.744;18.206;2023-04-03T04:27:07;-5.80;99.90
8684;DHT22;4379;59.744;18.206;2023-04-03T04:29:34;-5.70;99.90
8684;DHT22;4379;59.744;18.206;2023-04-03T04:32:04;-5.70;99.90
8684;DHT22;4379;59.744;18.206;2023-04-03T04:34:32;-5.70;99.90
8684;DHT22;4379;59.744;18.206;2023-04-03T04:36:59;-5.60;99.90
8684;DHT22;4379;59.744;18.206;2023-04-03T04:39:27;-5.60;99.90
8684;DHT22;4379;59.744;18.206;2023-04-03T04:41:54;-5.60;99.90
8684;DHT22;4379;59.744;18.206;2023-04-03T04:44:22;-5.60;99.90
8684;DHT22;4379;59.744;18.206;2023-04-03T04:46:50;-5.50;99.90
8684;DHT22;4379;59.744;18.206;2023-04-03T04:49:17;-5.40;99.90
8684;DHT22;4379;59.744;18.206;2023-04-03T04:51:45;-5.40;99.90
8684;DHT22;4379;59.744;18.206;2023-04-03T04:54:18;-5.30;99.90
8684;DHT22;4379;59.744;18.206;2023-04-03T04:56:46;-5.20;99.90
8684;DHT22;4379;59.744;18.206;2023-04-03T04:59:13;-5.10;99.90
8684;DHT22;4379;59.744;18.206;2023-04-03T05:01:41;-5.10;99.90
8684;DHT22;4379;59.744;18.206;2023-04-03T05:04:08;-4.90;99.90
8684;DHT22;4379;59.744;18.206;2023-04-03T05:06:36;-4.90;99.90
8684;DHT22;4379;59.744;18.206;2023-04-03T05:09:04;-4.80;99.90
8684;DHT22;4379;59.744;18.206;2023-04-03T05:11:32;-4.70;99.90
8684;DHT22;4379;59.744;18.206;2023-04-03T05:13:59;-4.70;99.90
8684;DHT22;4379;59.744;18.206;2023-04-03T05:16:27;-4.60;99.90
8684;DHT22;4379;59.744;18.206;2023-04-03T05:18:55;-4.60;99.90
8684;DHT22;4379;59.744;18.206;2023-04-03T05:21:22;-4.50;99.90
8684;DHT22;4379;59.744;18.206;2023-04-03T05:23:52;-4.40;99.90
8684;DHT22;4379;59.744;18.206;2023-04-03T05:26:19;-4.30;99.90
8684;DHT22;4379;59.744;18.206;2023-04-03T05:28:48;-4.30;99.90
8684;DHT22;4379;59.744;18.206;2023-04-03T05:31:15;-4.20;99.90
8684;DHT22;4379;59.744;18.206;2023-04-03T05:33:43;-4.10;99.90
8684;DHT22;4379;59.744;18.206;2023-04-03T05:36:11;-4.00;99.90
8684;DHT22;4379;59.744;18.206;2023-04-03T05:38:40;-3.80;99.90
8684;DHT22;4379;59.744;18.206;2023-04-03T05:41:07;-3.70;99.90
8684;DHT22;4379;59.744;18.206;2023-04-03T05:43:35;-3.60;99.90
8684;DHT22;4379;59.744;18.206;2023-04-03T05:46:12;-3.30;99.90
8684;DHT22;4379;59.744;18.206;2023-04-03T05:48:41;-3.10;99.90
8684;DHT22;4379;59.744;18.206;2023-04-03T05:51:18;-2.90;99.90
8684;DHT22;4379;59.744;18.206;2023-04-03T05:53:47;-2.50;99.90
8684;DHT22;4379;59.744;18.206;2023-04-03T05:56:15;-1.90;99.90
8684;DHT22;4379;59.744;18.206;2023-04-03T05:58:42;-1.20;99.90
8684;DHT22;4379;59.744;18.206;2023-04-03T06:01:10;-0.70;99.90
8684;DHT22;4379;59.744;18.206;2023-04-03T06:03:37;-0.40;99.90
8684;DHT22;4379;59.744;18.206;2023-04-03T06:06:06;-0.10;99.90
8684;DHT22;4379;59.744;18.206;2023-04-03T06:08:35;0.60;99.90
8684;DHT22;4379;59.744;18.206;2023-04-03T06:11:02;1.70;99.90
8684;DHT22;4379;59.744;18.206;2023-04-03T06:13:30;3.10;99.90
8684;DHT22;4379;59.744;18.206;2023-04-03T06:15:58;4.60;99.90
8684;DHT22;4379;59.744;18.206;2023-04-03T06:18:26;7.20;99.90
8684;DHT22;4379;59.744;18.206;2023-04-03T06:20:55;8.60;99.90
8684;DHT22;4379;59.744;18.206;2023-04-03T06:23:23;6.60;99.90
8684;DHT22;4379;59.744;18.206;2023-04-03T06:25:51;4.50;99.90
8684;DHT22;4379;59.744;18.206;2023-04-03T06:28:19;2.80;99.90
8684;DHT22;4379;59.744;18.206;2023-04-03T06:30:46;1.80;99.90
8684;DHT22;4379;59.744;18.206;2023-04-03T06:33:14;1.30;99.90
8684;DHT22;4379;59.744;18.206;2023-04-03T06:35:43;0.70;99.90
8684;DHT22;4379;59.744;18.206;2023-04-03T06:38:10;0.20;99.90
8684;DHT22;4379;59.744;18.206;2023-04-03T06:40:39;0.30;99.90
8684;DHT22;4379;59.744;18.206;2023-04-03T06:43:06;0.60;99.90
8684;DHT22;4379;59.744;18.206;2023-04-03T06:45:35;0.30;99.90
8684;DHT22;4379;59.744;18.206;2023-04-03T06:48:04;1.30;99.90
8684;DHT22;4379;59.744;18.206;2023-04-03T06:50:32;2.70;99.90
8684;DHT22;4379;59.744;18.206;2023-04-03T06:53:01;2.90;99.90
8684;DHT22;4379;59.744;18.206;2023-04-03T06:55:28;3.30;99.90
8684;DHT22;4379;59.744;18.206;2023-04-03T06:57:56;2.20;99.90
8684;DHT22;4379;59.744;18.206;2023-04-03T07:00:24;2.00;99.90
8684;DHT22;4379;59.744;18.206;2023-04-03T07:02:55;1.50;99.90
8684;DHT22;4379;59.744;18.206;2023-04-03T07:05:26;2.00;99.90
8684;DHT22;4379;59.744;18.206;2023-04-03T07:07:54;2.60;99.90
8684;DHT22;4379;59.744;18.206;2023-04-03T07:10:23;2.10;99.90
8684;DHT22;4379;59.744;18.206;2023-04-03T07:12:51;2.10;99.90
8684;DHT22;4379;59.744;18.206;2023-04-03T07:15:19;1.80;99.90
8684;DHT22;4379;59.744;18.206;2023-04-03T07:17:47;2.00;99.90
8684;DHT22;4379;59.744;18.206;2023-04-03T07:20:16;2.00;99.90
8684;DHT22;4379;59.744;18.206;2023-04-03T07:22:44;1.10;99.90
8684;DHT22;4379;59.744;18.206;2023-04-03T07:25:12;2.70;99.90
8684;DHT22;4379;59.744;18.206;2023-04-03T07:27:40;3.50;99.90
8684;DHT22;4379;59.744;18.206;2023-04-03T07:30:08;5.90;99.90
8684;DHT22;4379;59.744;18.206;2023-04-03T07:32:36;6.80;99.90
8684;DHT22;4379;59.744;18.206;2023-04-03T07:35:04;7.80;99.90
8684;DHT22;4379;59.744;18.206;2023-04-03T07:37:32;5.80;99.90
8684;DHT22;4379;59.744;18.206;2023-04-03T07:39:59;4.20;99.90
8684;DHT22;4379;59.744;18.206;2023-04-03T07:42:30;5.00;99.90
8684;DHT22;4379;59.744;18.206;2023-04-03T07:44:57;7.30;99.90
8684;DHT22;4379;59.744;18.206;2023-04-03T07:47:25;10.30;99.90
8684;DHT22;4379;59.744;18.206;2023-04-03T07:49:53;10.50;99.90
8684;DHT22;4379;59.744;18.206;2023-04-03T07:52:20;10.20;99.90
8684;DHT22;4379;59.744;18.206;2023-04-03T07:54:48;11.30;99.90
8684;DHT22;4379;59.744;18.206;2023-04-03T07:57:18;11.70;99.90
8684;DHT22;4379;59.744;18.206;2023-04-03T07:59:47;9.90;99.90
8684;DHT22;4379;59.744;18.206;2023-04-03T08:02:16;6.40;99.90
8684;DHT22;4379;59.744;18.206;2023-04-03T08:04:44;7.00;99.90
8684;DHT22;4379;59.744;18.206;2023-04-03T08:07:12;6.00;99.90
8684;DHT22;4379;59.744;18.206;2023-04-03T08:09:41;5.20;99.90
8684;DHT22;4379;59.744;18.206;2023-04-03T08:12:09;5.50;99.90
8684;DHT22;4379;59.744;18.206;2023-04-03T08:14:38;5.90;99.90
8684;DHT22;4379;59.744;18.206;2023-04-03T08:17:06;7.40;99.90
8684;DHT22;4379;59.744;18.206;2023-04-03T08:19:36;6.00;99.90
8684;DHT22;4379;59.744;18.206;2023-04-03T08:22:04;6.30;99.90
8684;DHT22;4379;59.744;18.206;2023-04-03T08:24:33;6.10;99.90
8684;DHT22;4379;59.744;18.206;2023-04-03T08:27:02;5.60;99.90
8684;DHT22;4379;59.744;18.206;2023-04-03T08:29:29;5.20;99.90
8684;DHT22;4379;59.744;18.206;2023-04-03T08:31:59;5.10;99.90
8684;DHT22;4379;59.744;18.206;2023-04-03T08:34:27;4.90;99.90
8684;DHT22;4379;59.744;18.206;2023-04-03T08:36:54;4.50;99.90
8684;DHT22;4379;59.744;18.206;2023-04-03T08:39:22;5.10;99.90
8684;DHT22;4379;59.744;18.206;2023-04-03T08:41:50;7.40;99.90
8684;DHT22;4379;59.744;18.206;2023-04-03T08:49:45;12.70;99.90
8684;DHT22;4379;59.744;18.206;2023-04-03T08:52:35;14.40;99.90
8684;DHT22;4379;59.744;18.206;2023-04-03T08:55:27;15.20;99.90
8684;DHT22;4379;59.744;18.206;2023-04-03T08:58:09;16.00;99.90
8684;DHT22;4379;59.744;18.206;2023-04-03T09:00:48;14.80;99.90
8684;DHT22;4379;59.744;18.206;2023-04-03T09:03:19;15.60;99.90
8684;DHT22;4379;59.744;18.206;2023-04-03T09:06:00;14.80;99.90
8684;DHT22;4379;59.744;18.206;2023-04-03T09:08:40;14.10;99.90
8684;DHT22;4379;59.744;18.206;2023-04-03T09:11:21;12.90;99.90
8684;DHT22;4379;59.744;18.206;2023-04-03T09:17:03;14.00;99.90
8684;DHT22;4379;59.744;18.206;2023-04-03T09:19:46;12.00;99.90
8684;DHT22;4379;59.744;18.206;2023-04-03T09:22:27;11.20;99.90
8684;DHT22;4379;59.744;18.206;2023-04-03T09:25:23;9.50;99.90
8684;DHT22;4379;59.744;18.206;2023-04-03T09:27:51;9.60;99.90
8684;DHT22;4379;59.744;18.206;2023-04-03T09:30:25;9.70;99.90
8684;DHT22;4379;59.744;18.206;2023-04-03T09:32:55;9.30;99.90
8684;DHT22;4379;59.744;18.206;2023-04-03T09:35:29;7.80;99.90
8684;DHT22;4379;59.744;18.206;2023-04-03T09:38:15;7.70;99.90
8684;DHT22;4379;59.744;18.206;2023-04-03T09:40:46;6.70;99.90
8684;DHT22;4379;59.744;18.206;2023-04-03T09:45:47;7.30;99.90
8684;DHT22;4379;59.744;18.206;2023-04-03T09:48:21;7.20;99.90
8684;DHT22;4379;59.744;18.206;2023-04-03T09:56:01;5.40;99.90
8684;DHT22;4379;59.744;18.206;2023-04-03T09:58:41;5.30;99.90
8684;DHT22;4379;59.744;18.206;2023-04-03T10:01:37;5.80;99.90
8684;DHT22;4379;59.744;18.206;2023-04-03T10:04:11;7.00;99.90
8684;DHT22;4379;59.744;18.206;2023-04-03T10:06:47;6.20;99.90
8684;DHT22;4379;59.744;18.206;2023-04-03T10:09:30;6.80;99.90
8684;DHT22;4379;59.744;18.206;2023-04-03T10:12:11;6.00;99.90
8684;DHT22;4379;59.744;18.206;2023-04-03T10:20:30;7.20;99.90
8684;DHT22;4379;59.744;18.206;2023-04-03T10:23:31;7.40;99.90
8684;DHT22;4379;59.744;18.206;2023-04-03T10:31:13;7.30;99.90
8684;DHT22;4379;59.744;18.206;2023-04-03T10:37:34;5.70;99.90
8684;DHT22;4379;59.744;18.206;2023-04-03T10:39:59;5.20;99.90
8684;DHT22;4379;59.744;18.206;2023-04-03T10:42:43;5.80;99.90
8684;DHT22;4379;59.744;18.206;2023-04-03T10:48:07;6.50;99.90
8684;DHT22;4379;59.744;18.206;2023-04-03T10:50:50;6.80;99.90
8684;DHT22;4379;59.744;18.206;2023-04-03T10:53:37;6.60;99.90
8684;DHT22;4379;59.744;18.206;2023-04-03T10:58:45;5.60;99.90
8684;DHT22;4379;59.744;18.206;2023-04-03T11:01:31;5.30;99.90
8684;DHT22;4379;59.744;18.206;2023-04-03T11:04:01;5.50;99.90
8684;DHT22;4379;59.744;18.206;2023-04-03T11:07:08;5.50;99.90
8684;DHT22;4379;59.744;18.206;2023-04-03T11:09:44;5.30;99.90
8684;DHT22;4379;59.744;18.206;2023-04-03T11:12:24;5.70;99.90
8684;DHT22;4379;59.744;18.206;2023-04-03T11:14:55;5.50;99.90
8684;DHT22;4379;59.744;18.206;2023-04-03T11:17:33;6.10;99.90
8684;DHT22;4379;59.744;18.206;2023-04-03T11:20:26;6.60;99.90
8684;DHT22;4379;59.744;18.206;2023-04-03T11:25:37;6.30;99.90
8684;DHT22;4379;59.744;18.206;2023-04-03T11:28:12;6.50;99.90
8684;DHT22;4379;59.744;18.206;2023-04-03T11:36:38;5.40;99.90
8684;DHT22;4379;59.744;18.206;2023-04-03T11:41:50;5.20;99.90
8684;DHT22;4379;59.744;18.206;2023-04-03T11:44:37;4.90;99.90
8684;DHT22;4379;59.744;18.206;2023-04-03T11:47:07;5.10;99.90
8684;DHT22;4379;59.744;18.206;2023-04-03T11:49:56;4.80;99.90
8684;DHT22;4379;59.744;18.206;2023-04-03T12:14:01;4.70;99.90
8684;DHT22;4379;59.744;18.206;2023-04-03T12:19:38;5.00;99.90
8684;DHT22;4379;59.744;18.206;2023-04-03T12:22:16;5.20;99.90
8684;DHT22;4379;59.744;18.206;2023-04-03T12:24:50;4.60;99.90
8684;DHT22;4379;59.744;18.206;2023-04-03T12:27:29;4.80;99.90
8684;DHT22;4379;59.744;18.206;2023-04-03T12:35:51;4.60;99.90
8684;DHT22;4379;59.744;18.206;2023-04-03T12:38:37;4.30;99.90
8684;DHT22;4379;59.744;18.206;2023-04-03T12:43:58;4.70;99.90
8684;DHT22;4379;59.744;18.206;2023-04-03T12:46:42;4.30;99.90
8684;DHT22;4379;59.744;18.206;2023-04-03T12:49:30;4.10;99.90
8684;DHT22;4379;59.744;18.206;2023-04-03T12:52:01;4.40;99.90
8684;DHT22;4379;59.744;18.206;2023-04-03T12:54:36;4.30;99.90
8684;DHT22;4379;59.744;18.206;2023-04-03T12:57:18;4.20;99.90
8684;DHT22;4379;59.744;18.206;2023-04-03T12:59:47;4.40;99.90
8684;DHT22;4379;59.744;18.206;2023-04-03T13:02:31;4.60;99.90
8684;DHT22;4379;59.744;18.206;2023-04-03T13:05:09;4.70;99.90
8684;DHT22;4379;59.744;18.206;2023-04-03T13:07:41;5.00;99.90
8684;DHT22;4379;59.744;18.206;2023-04-03T13:10:14;4.40;99.90
8684;DHT22;4379;59.744;18.206;2023-04-03T13:15:21;4.60;99.90
8684;DHT22;4379;59.744;18.206;2023-04-03T13:17:50;4.40;99.90
8684;DHT22;4379;59.744;18.206;2023-04-03T13:20:34;4.70;99.90
8684;DHT22;4379;59.744;18.206;2023-04-03T13:23:07;4.90;99.90
8684;DHT22;4379;59.744;18.206;2023-04-03T13:25:41;4.50;99.90
8684;DHT22;4379;59.744;18.206;2023-04-03T13:28:13;4.90;99.90
8684;DHT22;4379;59.744;18.206;2023-04-03T13:31:01;4.90;99.90
8684;DHT22;4379;59.744;18.206;2023-04-03T13:33:33;4.80;99.90
8684;DHT22;4379;59.744;18.206;2023-04-03T13:36:19;4.20;99.90
8684;DHT22;4379;59.744;18.206;2023-04-03T13:39:06;4.20;99.90
8684;DHT22;4379;59.744;18.206;2023-04-03T13:41:36;4.30;99.90
8684;DHT22;4379;59.744;18.206;2023-04-03T13:46:52;4.30;99.90
8684;DHT22;4379;59.744;18.206;2023-04-03T13:49:35;4.40;99.90
8684;DHT22;4379;59.744;18.206;2023-04-03T13:52:55;4.60;99.90
8684;DHT22;4379;59.744;18.206;2023-04-03T13:58:20;4.00;99.90
8684;DHT22;4379;59.744;18.206;2023-04-03T14:00:51;3.90;99.90
8684;DHT22;4379;59.744;18.206;2023-04-03T14:03:28;3.80;99.90
8684;DHT22;4379;59.744;18.206;2023-04-03T14:05:56;3.80;99.90
8684;DHT22;4379;59.744;18.206;2023-04-03T14:08:24;3.60;99.90
8684;DHT22;4379;59.744;18.206;2023-04-03T14:11:34;3.90;99.90
8684;DHT22;4379;59.744;18.206;2023-04-03T14:14:12;4.20;99.90
8684;DHT22;4379;59.744;18.206;2023-04-03T14:16:43;4.10;99.90
8684;DHT22;4379;59.744;18.206;2023-04-03T14:19:28;3.80;99.90
8684;DHT22;4379;59.744;18.206;2023-04-03T14:21:56;4.00;99.90
8684;DHT22;4379;59.744;18.206;2023-04-03T14:24:24;4.10;99.90
8684;DHT22;4379;59.744;18.206;2023-04-03T14:26:54;4.30;99.90
8684;DHT22;4379;59.744;18.206;2023-04-03T14:29:22;4.20;99.90
8684;DHT22;4379;59.744;18.206;2023-04-03T14:31:50;4.50;99.90
8684;DHT22;4379;59.744;18.206;2023-04-03T14:34:33;4.10;99.90
8684;DHT22;4379;59.744;18.206;2023-04-03T14:37:01;4.10;99.90
8684;DHT22;4379;59.744;18.206;2023-04-03T14:39:29;4.00;99.90
8684;DHT22;4379;59.744;18.206;2023-04-03T14:41:57;4.30;99.90
8684;DHT22;4379;59.744;18.206;2023-04-03T14:44:24;4.20;99.90
8684;DHT22;4379;59.744;18.206;2023-04-03T14:46:52;4.10;99.90
8684;DHT22;4379;59.744;18.206;2023-04-03T14:49:27;4.00;99.90
8684;DHT22;4379;59.744;18.206;2023-04-03T14:51:57;4.10;99.90
8684;DHT22;4379;59.744;18.206;2023-04-03T14:54:26;4.00;99.90
8684;DHT22;4379;59.744;18.206;2023-04-03T14:56:57;4.00;99.90
8684;DHT22;4379;59.744;18.206;2023-04-03T14:59:26;3.80;99.90
8684;DHT22;4379;59.744;18.206;2023-04-03T15:01:55;3.90;99.90
8684;DHT22;4379;59.744;18.206;2023-04-03T15:04:24;3.50;99.90
8684;DHT22;4379;59.744;18.206;2023-04-03T15:06:52;3.60;99.90
8684;DHT22;4379;59.744;18.206;2023-04-03T15:09:25;3.60;99.90
8684;DHT22;4379;59.744;18.206;2023-04-03T15:11:54;3.50;99.90
8684;DHT22;4379;59.744;18.206;2023-04-03T15:14:23;3.60;99.90
8684;DHT22;4379;59.744;18.206;2023-04-03T15:17:04;3.60;99.90
8684;DHT22;4379;59.744;18.206;2023-04-03T15:19:37;3.50;99.90
8684;DHT22;4379;59.744;18.206;2023-04-03T15:22:05;3.50;99.90
8684;DHT22;4379;59.744;18.206;2023-04-03T15:24:33;3.50;99.90
8684;DHT22;4379;59.744;18.206;2023-04-03T15:27:01;3.60;99.90
8684;DHT22;4379;59.744;18.206;2023-04-03T15:29:28;3.70;99.90
8684;DHT22;4379;59.744;18.206;2023-04-03T15:31:56;3.70;99.90
8684;DHT22;4379;59.744;18.206;2023-04-03T15:34:24;3.60;99.90
8684;DHT22;4379;59.744;18.206;2023-04-03T15:36:52;3.60;99.90
8684;DHT22;4379;59.744;18.206;2023-04-03T15:39:20;3.40;99.90
8684;DHT22;4379;59.744;18.206;2023-04-03T15:41:48;3.30;99.90
8684;DHT22;4379;59.744;18.206;2023-04-03T15:44:16;3.20;99.90
8684;DHT22;4379;59.744;18.206;2023-04-03T15:46:48;3.00;99.90
8684;DHT22;4379;59.744;18.206;2023-04-03T15:49:19;3.00;99.90
8684;DHT22;4379;59.744;18.206;2023-04-03T15:51:53;3.10;99.90
8684;DHT22;4379;59.744;18.206;2023-04-03T15:54:22;3.00;99.90
8684;DHT22;4379;59.744;18.206;2023-04-03T15:56:53;2.80;99.90
8684;DHT22;4379;59.744;18.206;2023-04-03T15:59:22;2.70;99.90
8684;DHT22;4379;59.744;18.206;2023-04-03T16:01:51;2.70;99.90
8684;DHT22;4379;59.744;18.206;2023-04-03T16:04:20;2.70;99.90
8684;DHT22;4379;59.744;18.206;2023-04-03T16:06:49;2.70;99.90
8684;DHT22;4379;59.744;18.206;2023-04-03T16:09:17;2.60;99.90
8684;DHT22;4379;59.744;18.206;2023-04-03T16:11:45;2.60;99.90
8684;DHT22;4379;59.744;18.206;2023-04-03T16:14:13;2.60;99.90
8684;DHT22;4379;59.744;18.206;2023-04-03T16:16:41;2.70;99.90
8684;DHT22;4379;59.744;18.206;2023-04-03T16:19:09;2.60;99.90
8684;DHT22;4379;59.744;18.206;2023-04-03T16:21:40;2.70;99.90
8684;DHT22;4379;59.744;18.206;2023-04-03T16:24:10;2.70;99.90
8684;DHT22;4379;59.744;18.206;2023-04-03T16:26:38;2.60;99.90
8684;DHT22;4379;59.744;18.206;2023-04-03T16:29:07;2.50;99.90
8684;DHT22;4379;59.744;18.206;2023-04-03T16:31:38;2.50;99.90
8684;DHT22;4379;59.744;18.206;2023-04-03T16:34:08;2.30;99.90
8684;DHT22;4379;59.744;18.206;2023-04-03T16:36:41;2.00;99.90
8684;DHT22;4379;59.744;18.206;2023-04-03T16:39:08;2.10;99.90
8684;DHT22;4379;59.744;18.206;2023-04-03T16:41:37;2.10;99.90
8684;DHT22;4379;59.744;18.206;2023-04-03T16:44:05;1.90;99.90
8684;DHT22;4379;59.744;18.206;2023-04-03T16:46:34;1.80;99.90
8684;DHT22;4379;59.744;18.206;2023-04-03T16:49:03;1.90;99.90
8684;DHT22;4379;59.744;18.206;2023-04-03T16:51:31;1.80;99.90
8684;DHT22;4379;59.744;18.206;2023-04-03T16:54:00;1.70;99.90
8684;DHT22;4379;59.744;18.206;2023-04-03T16:56:27;1.70;99.90
8684;DHT22;4379;59.744;18.206;2023-04-03T16:58:55;1.60;99.90
8684;DHT22;4379;59.744;18.206;2023-04-03T17:01:23;1.60;99.90
8684;DHT22;4379;59.744;18.206;2023-04-03T17:03:52;1.40;99.90
8684;DHT22;4379;59.744;18.206;2023-04-03T17:06:20;1.20;99.90
8684;DHT22;4379;59.744;18.206;2023-04-03T17:08:51;1.10;99.90
8684;DHT22;4379;59.744;18.206;2023-04-03T17:11:19;0.90;99.90
8684;DHT22;4379;59.744;18.206;2023-04-03T17:13:47;0.70;99.90
8684;DHT22;4379;59.744;18.206;2023-04-03T17:16:15;0.50;99.90
8684;DHT22;4379;59.744;18.206;2023-04-03T17:18:43;0.30;99.90
8684;DHT22;4379;59.744;18.206;2023-04-03T17:21:12;0.20;99.90
8684;DHT22;4379;59.744;18.206;2023-04-03T17:23:42;0.10;99.90
8684;DHT22;4379;59.744;18.206;2023-04-03T17:26:09;-0.20;99.90
8684;DHT22;4379;59.744;18.206;2023-04-03T17:28:37;-0.30;99.90
8684;DHT22;4379;59.744;18.206;2023-04-03T17:31:09;-0.40;99.90
8684;DHT22;4379;59.744;18.206;2023-04-03T17:33:37;-0.70;99.90
8684;DHT22;4379;59.744;18.206;2023-04-03T17:36:04;-0.90;99.90
8684;DHT22;4379;59.744;18.206;2023-04-03T17:38:33;-1.10;99.90
8684;DHT22;4379;59.744;18.206;2023-04-03T17:41:03;-1.30;99.90
8684;DHT22;4379;59.744;18.206;2023-04-03T17:43:32;-1.40;99.90
8684;DHT22;4379;59.744;18.206;2023-04-03T17:46:07;-1.60;99.90
8684;DHT22;4379;59.744;18.206;2023-04-03T17:48:37;-1.70;99.90